Disclaimer

Please do not use the information listed here in-flight or in-navigation, as they are not provided to us by the airports but are provided by volunteers, so they might be outdated.

Search


Regions


Airport information page

Radio informations:
Tower (TWR) - 121.3 MHz
APRON OFFICE - 122.65 MHz
Approach (APP) - 121.3 MHz

Airport informations:
Latitude: 28° 23' 56.75" S
Longitude: 021° 15' 36.86" E
Elevation: 2782 feet - 848 meters
Operating hours: Remarks
Operating agency: Civil government, landing fees and diplomatic clearance may be required
Timezone: UTC+2
Fuel: Jet A1, without icing nhibitor.

100/130 MIL Spec, low lead, aviation gasoline (BLUE)

Runway information:
08/26 - 2736 x 98 feet< - >834 x 30 meters
17/35 - 16076 x 197 feet< - >4900 x 60 meters

Recent METARs:
FAUP 130300Z 23002KT CAVOK 20/M05 Q1017 NOSIG
FAUP 130300Z 23002KT CAVOK 20/M05 Q1017 NOSIG
FAUP 130400Z 26002KT CAVOK 19/M05 Q1018 NOSIG

Airport on the map: